sensor_id;sensor_type;location;lat;lon;timestamp;P1;durP1;ratioP1;P2;durP2;ratioP2
20637;SDS011;10478;49.004;8.470;2022-08-19T00:00:06;14.45;;;9.63;;
20637;SDS011;10478;49.004;8.470;2022-08-19T00:02:33;13.90;;;9.98;;
20637;SDS011;10478;49.004;8.470;2022-08-19T00:04:59;16.80;;;9.88;;
20637;SDS011;10478;49.004;8.470;2022-08-19T00:07:24;14.75;;;9.85;;
20637;SDS011;10478;49.004;8.470;2022-08-19T00:09:50;16.63;;;9.63;;
20637;SDS011;10478;49.004;8.470;2022-08-19T00:12:15;13.20;;;9.23;;
20637;SDS011;10478;49.004;8.470;2022-08-19T00:14:40;15.63;;;10.65;;
20637;SDS011;10478;49.004;8.470;2022-08-19T00:17:06;13.73;;;9.73;;
20637;SDS011;10478;49.004;8.470;2022-08-19T00:19:32;13.02;;;9.63;;
20637;SDS011;10478;49.004;8.470;2022-08-19T00:21:58;17.55;;;10.50;;
20637;SDS011;10478;49.004;8.470;2022-08-19T00:24:24;16.80;;;10.13;;
20637;SDS011;10478;49.004;8.470;2022-08-19T00:26:51;16.92;;;10.30;;
20637;SDS011;10478;49.004;8.470;2022-08-19T00:29:18;15.10;;;10.30;;
20637;SDS011;10478;49.004;8.470;2022-08-19T00:31:44;12.77;;;9.45;;
20637;SDS011;10478;49.004;8.470;2022-08-19T00:34:10;15.80;;;10.68;;
20637;SDS011;10478;49.004;8.470;2022-08-19T00:36:37;15.65;;;10.23;;
20637;SDS011;10478;49.004;8.470;2022-08-19T00:39:03;14.05;;;10.15;;
20637;SDS011;10478;49.004;8.470;2022-08-19T00:41:29;15.10;;;10.48;;
20637;SDS011;10478;49.004;8.470;2022-08-19T00:46:24;15.43;;;9.50;;
20637;SDS011;10478;49.004;8.470;2022-08-19T00:48:49;15.88;;;11.05;;
20637;SDS011;10478;49.004;8.470;2022-08-19T00:51:14;15.48;;;10.20;;
20637;SDS011;10478;49.004;8.470;2022-08-19T00:53:40;15.30;;;10.85;;
20637;SDS011;10478;49.004;8.470;2022-08-19T00:56:05;17.90;;;11.27;;
20637;SDS011;10478;49.004;8.470;2022-08-19T00:58:32;19.25;;;11.95;;
20637;SDS011;10478;49.004;8.470;2022-08-19T01:00:59;17.38;;;11.50;;
20637;SDS011;10478;49.004;8.470;2022-08-19T01:03:25;14.20;;;9.90;;
20637;SDS011;10478;49.004;8.470;2022-08-19T01:05:51;16.15;;;10.90;;
20637;SDS011;10478;49.004;8.470;2022-08-19T01:08:17;14.30;;;9.98;;
20637;SDS011;10478;49.004;8.470;2022-08-19T01:10:45;14.25;;;9.43;;
20637;SDS011;10478;49.004;8.470;2022-08-19T01:13:17;16.08;;;10.15;;
20637;SDS011;10478;49.004;8.470;2022-08-19T01:15:45;16.23;;;11.38;;
20637;SDS011;10478;49.004;8.470;2022-08-19T01:18:13;17.55;;;10.68;;
20637;SDS011;10478;49.004;8.470;2022-08-19T01:20:40;15.27;;;10.45;;
20637;SDS011;10478;49.004;8.470;2022-08-19T01:23:06;17.48;;;11.15;;
20637;SDS011;10478;49.004;8.470;2022-08-19T01:25:46;20.35;;;11.00;;
20637;SDS011;10478;49.004;8.470;2022-08-19T01:28:19;15.38;;;10.75;;
20637;SDS011;10478;49.004;8.470;2022-08-19T01:30:50;13.90;;;10.65;;
20637;SDS011;10478;49.004;8.470;2022-08-19T01:33:16;14.10;;;10.35;;
20637;SDS011;10478;49.004;8.470;2022-08-19T01:35:42;15.77;;;11.10;;
20637;SDS011;10478;49.004;8.470;2022-08-19T01:38:09;19.17;;;12.30;;
20637;SDS011;10478;49.004;8.470;2022-08-19T01:40:37;13.95;;;10.63;;
20637;SDS011;10478;49.004;8.470;2022-08-19T01:43:04;15.02;;;11.32;;
20637;SDS011;10478;49.004;8.470;2022-08-19T01:45:31;14.88;;;10.68;;
20637;SDS011;10478;49.004;8.470;2022-08-19T01:47:57;15.13;;;10.05;;
20637;SDS011;10478;49.004;8.470;2022-08-19T01:50:23;15.05;;;10.52;;
20637;SDS011;10478;49.004;8.470;2022-08-19T01:52:48;17.45;;;12.07;;
20637;SDS011;10478;49.004;8.470;2022-08-19T01:55:15;17.80;;;11.88;;
20637;SDS011;10478;49.004;8.470;2022-08-19T01:57:43;16.85;;;12.05;;
20637;SDS011;10478;49.004;8.470;2022-08-19T02:00:11;23.52;;;13.40;;
20637;SDS011;10478;49.004;8.470;2022-08-19T02:02:38;15.55;;;11.20;;
20637;SDS011;10478;49.004;8.470;2022-08-19T02:05:04;16.63;;;11.27;;
20637;SDS011;10478;49.004;8.470;2022-08-19T02:07:31;17.90;;;11.50;;
20637;SDS011;10478;49.004;8.470;2022-08-19T02:09:57;16.15;;;11.13;;
20637;SDS011;10478;49.004;8.470;2022-08-19T02:12:23;17.05;;;11.20;;
20637;SDS011;10478;49.004;8.470;2022-08-19T02:14:48;17.30;;;11.80;;
20637;SDS011;10478;49.004;8.470;2022-08-19T02:17:13;15.68;;;11.90;;
20637;SDS011;10478;49.004;8.470;2022-08-19T02:19:39;17.70;;;12.50;;
20637;SDS011;10478;49.004;8.470;2022-08-19T02:22:05;18.85;;;12.32;;
20637;SDS011;10478;49.004;8.470;2022-08-19T02:24:30;16.02;;;11.48;;
20637;SDS011;10478;49.004;8.470;2022-08-19T02:26:55;22.30;;;13.52;;
20637;SDS011;10478;49.004;8.470;2022-08-19T02:29:22;19.15;;;12.63;;
20637;SDS011;10478;49.004;8.470;2022-08-19T02:31:47;21.13;;;13.13;;
20637;SDS011;10478;49.004;8.470;2022-08-19T02:34:13;15.57;;;11.50;;
20637;SDS011;10478;49.004;8.470;2022-08-19T02:36:38;20.20;;;13.57;;
20637;SDS011;10478;49.004;8.470;2022-08-19T02:39:03;21.35;;;12.43;;
20637;SDS011;10478;49.004;8.470;2022-08-19T02:41:29;19.15;;;12.13;;
20637;SDS011;10478;49.004;8.470;2022-08-19T02:43:58;19.15;;;12.60;;
20637;SDS011;10478;49.004;8.470;2022-08-19T02:46:26;19.08;;;11.82;;
20637;SDS011;10478;49.004;8.470;2022-08-19T02:48:54;18.52;;;11.18;;
20637;SDS011;10478;49.004;8.470;2022-08-19T02:51:24;19.33;;;12.40;;
20637;SDS011;10478;49.004;8.470;2022-08-19T02:53:51;16.73;;;12.10;;
20637;SDS011;10478;49.004;8.470;2022-08-19T02:56:16;17.02;;;12.65;;
20637;SDS011;10478;49.004;8.470;2022-08-19T02:58:42;20.55;;;13.80;;
20637;SDS011;10478;49.004;8.470;2022-08-19T03:01:08;21.85;;;13.10;;
20637;SDS011;10478;49.004;8.470;2022-08-19T03:03:33;17.27;;;12.20;;
20637;SDS011;10478;49.004;8.470;2022-08-19T03:06:03;21.83;;;13.40;;
20637;SDS011;10478;49.004;8.470;2022-08-19T03:08:39;17.17;;;11.80;;
20637;SDS011;10478;49.004;8.470;2022-08-19T03:11:05;24.88;;;14.63;;
20637;SDS011;10478;49.004;8.470;2022-08-19T03:13:31;20.17;;;14.25;;
20637;SDS011;10478;49.004;8.470;2022-08-19T03:15:56;17.63;;;12.70;;
20637;SDS011;10478;49.004;8.470;2022-08-19T03:18:22;19.23;;;13.07;;
20637;SDS011;10478;49.004;8.470;2022-08-19T03:20:48;20.95;;;14.05;;
20637;SDS011;10478;49.004;8.470;2022-08-19T03:23:14;19.45;;;13.65;;
20637;SDS011;10478;49.004;8.470;2022-08-19T03:25:41;21.45;;;15.05;;
20637;SDS011;10478;49.004;8.470;2022-08-19T03:28:08;18.63;;;13.38;;
20637;SDS011;10478;49.004;8.470;2022-08-19T03:30:35;20.08;;;13.43;;
20637;SDS011;10478;49.004;8.470;2022-08-19T03:33:00;20.08;;;13.35;;
20637;SDS011;10478;49.004;8.470;2022-08-19T03:35:26;20.88;;;13.32;;
20637;SDS011;10478;49.004;8.470;2022-08-19T03:37:52;21.92;;;14.43;;
20637;SDS011;10478;49.004;8.470;2022-08-19T03:40:17;21.52;;;14.82;;
20637;SDS011;10478;49.004;8.470;2022-08-19T03:42:43;18.70;;;13.75;;
20637;SDS011;10478;49.004;8.470;2022-08-19T03:45:09;18.73;;;12.88;;
20637;SDS011;10478;49.004;8.470;2022-08-19T03:47:35;22.15;;;13.95;;
20637;SDS011;10478;49.004;8.470;2022-08-19T03:50:02;25.25;;;13.75;;
20637;SDS011;10478;49.004;8.470;2022-08-19T03:52:27;19.65;;;13.75;;
20637;SDS011;10478;49.004;8.470;2022-08-19T03:54:52;19.40;;;13.82;;
20637;SDS011;10478;49.004;8.470;2022-08-19T03:57:18;26.33;;;15.93;;
20637;SDS011;10478;49.004;8.470;2022-08-19T03:59:43;18.83;;;12.40;;
20637;SDS011;10478;49.004;8.470;2022-08-19T04:02:10;23.92;;;16.10;;
20637;SDS011;10478;49.004;8.470;2022-08-19T04:04:36;22.95;;;14.90;;
20637;SDS011;10478;49.004;8.470;2022-08-19T04:07:07;22.80;;;14.95;;
20637;SDS011;10478;49.004;8.470;2022-08-19T04:09:34;25.50;;;14.85;;
20637;SDS011;10478;49.004;8.470;2022-08-19T04:12:01;27.35;;;15.77;;
20637;SDS011;10478;49.004;8.470;2022-08-19T04:14:28;26.10;;;16.42;;
20637;SDS011;10478;49.004;8.470;2022-08-19T04:16:55;23.42;;;15.38;;
20637;SDS011;10478;49.004;8.470;2022-08-19T04:19:20;26.75;;;16.45;;
20637;SDS011;10478;49.004;8.470;2022-08-19T04:21:48;21.38;;;14.10;;
20637;SDS011;10478;49.004;8.470;2022-08-19T04:24:15;25.27;;;15.88;;
20637;SDS011;10478;49.004;8.470;2022-08-19T04:26:42;20.50;;;14.18;;
20637;SDS011;10478;49.004;8.470;2022-08-19T04:29:09;20.42;;;14.15;;
20637;SDS011;10478;49.004;8.470;2022-08-19T04:31:36;21.60;;;14.50;;
20637;SDS011;10478;49.004;8.470;2022-08-19T04:34:03;22.63;;;14.88;;
20637;SDS011;10478;49.004;8.470;2022-08-19T04:36:30;24.55;;;16.25;;
20637;SDS011;10478;49.004;8.470;2022-08-19T04:38:58;22.77;;;15.93;;
20637;SDS011;10478;49.004;8.470;2022-08-19T04:41:25;20.52;;;13.68;;
20637;SDS011;10478;49.004;8.470;2022-08-19T04:44:09;23.75;;;14.68;;
20637;SDS011;10478;49.004;8.470;2022-08-19T04:46:35;22.50;;;15.38;;
20637;SDS011;10478;49.004;8.470;2022-08-19T04:49:02;23.67;;;16.15;;
20637;SDS011;10478;49.004;8.470;2022-08-19T04:51:29;29.25;;;18.30;;
20637;SDS011;10478;49.004;8.470;2022-08-19T04:53:56;24.52;;;16.83;;
20637;SDS011;10478;49.004;8.470;2022-08-19T04:56:21;34.30;;;21.00;;
20637;SDS011;10478;49.004;8.470;2022-08-19T04:58:47;26.73;;;17.73;;
20637;SDS011;10478;49.004;8.470;2022-08-19T05:01:14;27.77;;;17.40;;
20637;SDS011;10478;49.004;8.470;2022-08-19T05:03:42;29.30;;;17.95;;
20637;SDS011;10478;49.004;8.470;2022-08-19T05:06:09;26.52;;;17.27;;
20637;SDS011;10478;49.004;8.470;2022-08-19T05:08:36;25.33;;;17.13;;
20637;SDS011;10478;49.004;8.470;2022-08-19T05:11:07;34.72;;;18.30;;
20637;SDS011;10478;49.004;8.470;2022-08-19T05:13:34;28.02;;;18.65;;
20637;SDS011;10478;49.004;8.470;2022-08-19T05:16:00;36.00;;;18.33;;
20637;SDS011;10478;49.004;8.470;2022-08-19T05:18:25;28.00;;;18.00;;
20637;SDS011;10478;49.004;8.470;2022-08-19T05:21:10;29.92;;;18.42;;
20637;SDS011;10478;49.004;8.470;2022-08-19T05:23:55;78.45;;;48.67;;
20637;SDS011;10478;49.004;8.470;2022-08-19T05:26:20;30.75;;;20.20;;
20637;SDS011;10478;49.004;8.470;2022-08-19T05:28:46;35.42;;;20.92;;
20637;SDS011;10478;49.004;8.470;2022-08-19T05:31:12;31.10;;;18.63;;
20637;SDS011;10478;49.004;8.470;2022-08-19T05:33:37;24.38;;;15.93;;
20637;SDS011;10478;49.004;8.470;2022-08-19T05:36:04;24.70;;;16.13;;
20637;SDS011;10478;49.004;8.470;2022-08-19T05:38:32;31.60;;;18.70;;
20637;SDS011;10478;49.004;8.470;2022-08-19T05:40:57;28.35;;;17.50;;
20637;SDS011;10478;49.004;8.470;2022-08-19T05:43:23;26.42;;;17.55;;
20637;SDS011;10478;49.004;8.470;2022-08-19T05:45:48;26.35;;;16.35;;
20637;SDS011;10478;49.004;8.470;2022-08-19T05:48:15;25.38;;;16.55;;
20637;SDS011;10478;49.004;8.470;2022-08-19T05:50:45;24.33;;;15.95;;
20637;SDS011;10478;49.004;8.470;2022-08-19T05:53:11;23.85;;;15.35;;
20637;SDS011;10478;49.004;8.470;2022-08-19T05:55:37;23.17;;;15.05;;
20637;SDS011;10478;49.004;8.470;2022-08-19T05:58:03;24.60;;;15.23;;
20637;SDS011;10478;49.004;8.470;2022-08-19T06:00:30;29.05;;;16.88;;
20637;SDS011;10478;49.004;8.470;2022-08-19T06:02:56;24.65;;;15.90;;
20637;SDS011;10478;49.004;8.470;2022-08-19T06:05:27;26.55;;;17.10;;
20637;SDS011;10478;49.004;8.470;2022-08-19T06:07:53;26.92;;;17.25;;
20637;SDS011;10478;49.004;8.470;2022-08-19T06:10:19;21.58;;;14.68;;
20637;SDS011;10478;49.004;8.470;2022-08-19T06:12:45;46.08;;;30.33;;
20637;SDS011;10478;49.004;8.470;2022-08-19T06:15:12;27.98;;;16.98;;
20637;SDS011;10478;49.004;8.470;2022-08-19T06:17:38;26.52;;;18.73;;
20637;SDS011;10478;49.004;8.470;2022-08-19T06:20:04;37.05;;;17.40;;
20637;SDS011;10478;49.004;8.470;2022-08-19T06:22:31;25.30;;;16.35;;
20637;SDS011;10478;49.004;8.470;2022-08-19T06:25:03;29.33;;;18.33;;
20637;SDS011;10478;49.004;8.470;2022-08-19T06:27:28;32.03;;;20.80;;
20637;SDS011;10478;49.004;8.470;2022-08-19T06:29:55;23.77;;;15.93;;
20637;SDS011;10478;49.004;8.470;2022-08-19T06:32:21;20.55;;;14.65;;
20637;SDS011;10478;49.004;8.470;2022-08-19T06:34:46;26.70;;;16.08;;
20637;SDS011;10478;49.004;8.470;2022-08-19T06:37:11;25.05;;;16.38;;
20637;SDS011;10478;49.004;8.470;2022-08-19T06:39:38;24.30;;;16.60;;
20637;SDS011;10478;49.004;8.470;2022-08-19T06:42:05;28.05;;;16.67;;
20637;SDS011;10478;49.004;8.470;2022-08-19T06:44:37;25.90;;;16.77;;
20637;SDS011;10478;49.004;8.470;2022-08-19T06:47:04;23.65;;;14.35;;
20637;SDS011;10478;49.004;8.470;2022-08-19T06:49:31;19.17;;;13.60;;
20637;SDS011;10478;49.004;8.470;2022-08-19T06:51:56;21.55;;;14.35;;
20637;SDS011;10478;49.004;8.470;2022-08-19T06:54:23;22.58;;;13.63;;
20637;SDS011;10478;49.004;8.470;2022-08-19T06:56:49;24.30;;;14.63;;
20637;SDS011;10478;49.004;8.470;2022-08-19T06:59:16;26.45;;;17.60;;
20637;SDS011;10478;49.004;8.470;2022-08-19T07:01:51;23.92;;;16.50;;
20637;SDS011;10478;49.004;8.470;2022-08-19T07:04:21;26.52;;;15.77;;
20637;SDS011;10478;49.004;8.470;2022-08-19T07:06:48;27.25;;;18.23;;
20637;SDS011;10478;49.004;8.470;2022-08-19T07:09:15;22.60;;;15.95;;
20637;SDS011;10478;49.004;8.470;2022-08-19T07:11:46;30.08;;;17.10;;
20637;SDS011;10478;49.004;8.470;2022-08-19T07:14:13;22.05;;;15.93;;
20637;SDS011;10478;49.004;8.470;2022-08-19T07:16:39;25.25;;;17.35;;
20637;SDS011;10478;49.004;8.470;2022-08-19T07:19:04;33.63;;;18.40;;
20637;SDS011;10478;49.004;8.470;2022-08-19T07:21:30;26.85;;;18.85;;
20637;SDS011;10478;49.004;8.470;2022-08-19T07:23:56;22.10;;;15.25;;
20637;SDS011;10478;49.004;8.470;2022-08-19T07:26:29;23.17;;;15.20;;
20637;SDS011;10478;49.004;8.470;2022-08-19T07:28:56;21.02;;;15.02;;
20637;SDS011;10478;49.004;8.470;2022-08-19T07:31:23;22.58;;;14.82;;
20637;SDS011;10478;49.004;8.470;2022-08-19T07:33:50;18.05;;;12.32;;
20637;SDS011;10478;49.004;8.470;2022-08-19T07:36:18;21.13;;;13.43;;
20637;SDS011;10478;49.004;8.470;2022-08-19T07:38:47;20.38;;;13.23;;
20637;SDS011;10478;49.004;8.470;2022-08-19T07:41:15;21.13;;;13.40;;
20637;SDS011;10478;49.004;8.470;2022-08-19T07:43:42;21.92;;;13.27;;
20637;SDS011;10478;49.004;8.470;2022-08-19T07:46:08;20.33;;;12.45;;
20637;SDS011;10478;49.004;8.470;2022-08-19T07:48:34;16.90;;;12.38;;
20637;SDS011;10478;49.004;8.470;2022-08-19T07:51:01;16.92;;;11.77;;
20637;SDS011;10478;49.004;8.470;2022-08-19T07:53:29;19.35;;;12.73;;
20637;SDS011;10478;49.004;8.470;2022-08-19T07:55:55;18.98;;;12.63;;
20637;SDS011;10478;49.004;8.470;2022-08-19T07:58:28;19.05;;;11.60;;
20637;SDS011;10478;49.004;8.470;2022-08-19T08:00:53;13.73;;;11.13;;
20637;SDS011;10478;49.004;8.470;2022-08-19T08:03:19;16.90;;;10.55;;
20637;SDS011;10478;49.004;8.470;2022-08-19T08:05:45;17.55;;;12.48;;
20637;SDS011;10478;49.004;8.470;2022-08-19T08:08:30;13.90;;;10.00;;
20637;SDS011;10478;49.004;8.470;2022-08-19T08:11:14;18.40;;;11.32;;
20637;SDS011;10478;49.004;8.470;2022-08-19T08:13:41;15.70;;;11.65;;
20637;SDS011;10478;49.004;8.470;2022-08-19T08:16:07;13.80;;;9.68;;
20637;SDS011;10478;49.004;8.470;2022-08-19T08:18:33;23.00;;;16.00;;
20637;SDS011;10478;49.004;8.470;2022-08-19T08:21:06;14.73;;;10.50;;
20637;SDS011;10478;49.004;8.470;2022-08-19T08:23:31;13.27;;;10.10;;
20637;SDS011;10478;49.004;8.470;2022-08-19T08:25:57;15.95;;;10.32;;
20637;SDS011;10478;49.004;8.470;2022-08-19T08:28:23;17.42;;;9.63;;
20637;SDS011;10478;49.004;8.470;2022-08-19T08:30:49;14.25;;;10.35;;
20637;SDS011;10478;49.004;8.470;2022-08-19T08:33:19;22.95;;;12.20;;
20637;SDS011;10478;49.004;8.470;2022-08-19T08:35:46;17.40;;;11.48;;
20637;SDS011;10478;49.004;8.470;2022-08-19T08:38:12;14.93;;;10.35;;
20637;SDS011;10478;49.004;8.470;2022-08-19T08:43:07;15.50;;;9.13;;
20637;SDS011;10478;49.004;8.470;2022-08-19T08:45:43;16.50;;;9.60;;
20637;SDS011;10478;49.004;8.470;2022-08-19T08:48:18;16.88;;;9.57;;
20637;SDS011;10478;49.004;8.470;2022-08-19T08:50:48;10.10;;;7.63;;
20637;SDS011;10478;49.004;8.470;2022-08-19T08:53:17;13.50;;;8.43;;
20637;SDS011;10478;49.004;8.470;2022-08-19T08:55:43;9.95;;;7.93;;
20637;SDS011;10478;49.004;8.470;2022-08-19T08:58:14;9.55;;;7.30;;
20637;SDS011;10478;49.004;8.470;2022-08-19T09:00:44;12.70;;;7.45;;
20637;SDS011;10478;49.004;8.470;2022-08-19T09:03:17;10.82;;;7.15;;
20637;SDS011;10478;49.004;8.470;2022-08-19T09:06:00;9.07;;;7.18;;
20637;SDS011;10478;49.004;8.470;2022-08-19T09:11:30;11.93;;;6.80;;
20637;SDS011;10478;49.004;8.470;2022-08-19T09:14:15;14.55;;;6.68;;
20637;SDS011;10478;49.004;8.470;2022-08-19T09:16:49;10.60;;;8.23;;
20637;SDS011;10478;49.004;8.470;2022-08-19T09:19:16;9.57;;;5.22;;
20637;SDS011;10478;49.004;8.470;2022-08-19T09:21:42;11.40;;;5.95;;
20637;SDS011;10478;49.004;8.470;2022-08-19T09:24:08;7.40;;;5.80;;
20637;SDS011;10478;49.004;8.470;2022-08-19T09:26:33;17.00;;;7.22;;
20637;SDS011;10478;49.004;8.470;2022-08-19T09:28:59;12.25;;;6.90;;
20637;SDS011;10478;49.004;8.470;2022-08-19T09:31:27;9.75;;;6.50;;
20637;SDS011;10478;49.004;8.470;2022-08-19T09:33:57;14.50;;;7.60;;
20637;SDS011;10478;49.004;8.470;2022-08-19T09:36:23;15.07;;;6.60;;
20637;SDS011;10478;49.004;8.470;2022-08-19T09:38:50;10.98;;;7.88;;
20637;SDS011;10478;49.004;8.470;2022-08-19T09:41:18;14.02;;;7.80;;
20637;SDS011;10478;49.004;8.470;2022-08-19T09:43:45;8.85;;;6.15;;
20637;SDS011;10478;49.004;8.470;2022-08-19T09:46:12;11.05;;;6.47;;
20637;SDS011;10478;49.004;8.470;2022-08-19T09:48:38;13.93;;;9.07;;
20637;SDS011;10478;49.004;8.470;2022-08-19T09:51:05;10.25;;;7.75;;
20637;SDS011;10478;49.004;8.470;2022-08-19T09:53:33;7.95;;;5.53;;
20637;SDS011;10478;49.004;8.470;2022-08-19T09:55:58;8.57;;;6.50;;
20637;SDS011;10478;49.004;8.470;2022-08-19T09:58:24;11.73;;;5.38;;
20637;SDS011;10478;49.004;8.470;2022-08-19T10:00:53;8.30;;;5.95;;
20637;SDS011;10478;49.004;8.470;2022-08-19T10:03:22;6.35;;;4.65;;
20637;SDS011;10478;49.004;8.470;2022-08-19T10:05:47;9.15;;;5.18;;
20637;SDS011;10478;49.004;8.470;2022-08-19T10:08:13;7.07;;;5.82;;
20637;SDS011;10478;49.004;8.470;2022-08-19T10:10:38;9.07;;;6.38;;
20637;SDS011;10478;49.004;8.470;2022-08-19T10:13:04;7.00;;;5.55;;
20637;SDS011;10478;49.004;8.470;2022-08-19T10:15:29;12.18;;;5.82;;
20637;SDS011;10478;49.004;8.470;2022-08-19T10:17:55;11.55;;;6.47;;
20637;SDS011;10478;49.004;8.470;2022-08-19T10:20:20;11.48;;;5.40;;
20637;SDS011;10478;49.004;8.470;2022-08-19T10:22:47;7.32;;;5.50;;
20637;SDS011;10478;49.004;8.470;2022-08-19T10:25:12;7.78;;;5.85;;
20637;SDS011;10478;49.004;8.470;2022-08-19T10:27:39;8.20;;;6.03;;
20637;SDS011;10478;49.004;8.470;2022-08-19T10:30:04;7.65;;;5.57;;
20637;SDS011;10478;49.004;8.470;2022-08-19T10:32:31;8.55;;;5.53;;
20637;SDS011;10478;49.004;8.470;2022-08-19T10:34:56;9.00;;;5.68;;
20637;SDS011;10478;49.004;8.470;2022-08-19T10:37:22;9.55;;;6.03;;
20637;SDS011;10478;49.004;8.470;2022-08-19T10:39:47;7.85;;;6.43;;
20637;SDS011;10478;49.004;8.470;2022-08-19T10:42:13;7.07;;;5.35;;
20637;SDS011;10478;49.004;8.470;2022-08-19T10:44:39;7.68;;;5.85;;
20637;SDS011;10478;49.004;8.470;2022-08-19T10:47:04;10.30;;;6.10;;
20637;SDS011;10478;49.004;8.470;2022-08-19T10:49:30;8.15;;;6.22;;
20637;SDS011;10478;49.004;8.470;2022-08-19T10:51:55;10.50;;;5.47;;
20637;SDS011;10478;49.004;8.470;2022-08-19T10:54:39;7.18;;;5.95;;
20637;SDS011;10478;49.004;8.470;2022-08-19T10:57:23;10.15;;;6.53;;
20637;SDS011;10478;49.004;8.470;2022-08-19T10:59:53;7.25;;;5.95;;
20637;SDS011;10478;49.004;8.470;2022-08-19T11:02:19;9.55;;;6.05;;
20637;SDS011;10478;49.004;8.470;2022-08-19T11:04:44;8.88;;;6.30;;
20637;SDS011;10478;49.004;8.470;2022-08-19T11:07:09;7.72;;;6.00;;
20637;SDS011;10478;49.004;8.470;2022-08-19T11:09:37;10.43;;;5.82;;
20637;SDS011;10478;49.004;8.470;2022-08-19T11:12:04;7.95;;;5.72;;
20637;SDS011;10478;49.004;8.470;2022-08-19T11:14:30;8.35;;;5.35;;
20637;SDS011;10478;49.004;8.470;2022-08-19T11:16:57;7.72;;;5.80;;
20637;SDS011;10478;49.004;8.470;2022-08-19T11:19:23;10.30;;;7.05;;
20637;SDS011;10478;49.004;8.470;2022-08-19T11:21:49;13.40;;;8.77;;
20637;SDS011;10478;49.004;8.470;2022-08-19T11:24:17;6.85;;;5.25;;
20637;SDS011;10478;49.004;8.470;2022-08-19T11:26:45;6.85;;;4.93;;
20637;SDS011;10478;49.004;8.470;2022-08-19T11:29:12;8.35;;;5.50;;
20637;SDS011;10478;49.004;8.470;2022-08-19T11:31:39;7.40;;;5.80;;
20637;SDS011;10478;49.004;8.470;2022-08-19T11:34:07;12.95;;;7.00;;
20637;SDS011;10478;49.004;8.470;2022-08-19T11:36:34;12.55;;;7.32;;
20637;SDS011;10478;49.004;8.470;2022-08-19T11:39:00;15.38;;;7.38;;
20637;SDS011;10478;49.004;8.470;2022-08-19T11:41:26;9.77;;;7.18;;
20637;SDS011;10478;49.004;8.470;2022-08-19T11:43:52;7.60;;;6.28;;
20637;SDS011;10478;49.004;8.470;2022-08-19T11:46:20;15.95;;;6.00;;
20637;SDS011;10478;49.004;8.470;2022-08-19T11:48:47;8.90;;;5.45;;
20637;SDS011;10478;49.004;8.470;2022-08-19T11:51:16;6.57;;;5.63;;
20637;SDS011;10478;49.004;8.470;2022-08-19T11:53:44;6.00;;;5.03;;
20637;SDS011;10478;49.004;8.470;2022-08-19T11:56:10;6.80;;;5.50;;
20637;SDS011;10478;49.004;8.470;2022-08-19T11:58:36;6.90;;;5.95;;
20637;SDS011;10478;49.004;8.470;2022-08-19T12:01:06;10.10;;;5.50;;
20637;SDS011;10478;49.004;8.470;2022-08-19T12:03:36;8.73;;;5.10;;
20637;SDS011;10478;49.004;8.470;2022-08-19T12:06:05;9.02;;;5.85;;
20637;SDS011;10478;49.004;8.470;2022-08-19T12:08:31;7.05;;;5.93;;
20637;SDS011;10478;49.004;8.470;2022-08-19T12:10:57;7.82;;;5.97;;
20637;SDS011;10478;49.004;8.470;2022-08-19T12:13:22;10.18;;;6.75;;
20637;SDS011;10478;49.004;8.470;2022-08-19T12:15:47;6.60;;;5.95;;
20637;SDS011;10478;49.004;8.470;2022-08-19T12:18:13;5.97;;;5.45;;
20637;SDS011;10478;49.004;8.470;2022-08-19T12:20:39;6.55;;;5.15;;
20637;SDS011;10478;49.004;8.470;2022-08-19T12:23:06;6.25;;;5.43;;
20637;SDS011;10478;49.004;8.470;2022-08-19T12:25:34;5.53;;;4.80;;
20637;SDS011;10478;49.004;8.470;2022-08-19T12:28:00;6.15;;;5.28;;
20637;SDS011;10478;49.004;8.470;2022-08-19T12:30:25;11.10;;;5.57;;
20637;SDS011;10478;49.004;8.470;2022-08-19T12:32:51;7.65;;;4.97;;
20637;SDS011;10478;49.004;8.470;2022-08-19T12:35:16;9.15;;;5.32;;
20637;SDS011;10478;49.004;8.470;2022-08-19T12:37:42;7.35;;;5.53;;
20637;SDS011;10478;49.004;8.470;2022-08-19T12:40:09;7.55;;;5.35;;
20637;SDS011;10478;49.004;8.470;2022-08-19T12:42:36;5.90;;;4.82;;
20637;SDS011;10478;49.004;8.470;2022-08-19T12:45:02;8.25;;;4.47;;
20637;SDS011;10478;49.004;8.470;2022-08-19T12:47:27;6.25;;;4.68;;
20637;SDS011;10478;49.004;8.470;2022-08-19T12:49:53;6.03;;;4.80;;
20637;SDS011;10478;49.004;8.470;2022-08-19T12:52:19;6.85;;;5.30;;
20637;SDS011;10478;49.004;8.470;2022-08-19T12:54:46;6.80;;;5.25;;
20637;SDS011;10478;49.004;8.470;2022-08-19T12:57:11;8.32;;;5.05;;
20637;SDS011;10478;49.004;8.470;2022-08-19T12:59:37;6.13;;;5.28;;
20637;SDS011;10478;49.004;8.470;2022-08-19T13:02:03;5.97;;;4.97;;
20637;SDS011;10478;49.004;8.470;2022-08-19T13:04:31;7.13;;;5.45;;
20637;SDS011;10478;49.004;8.470;2022-08-19T13:06:57;6.00;;;4.70;;
20637;SDS011;10478;49.004;8.470;2022-08-19T13:09:23;7.60;;;6.28;;
20637;SDS011;10478;49.004;8.470;2022-08-19T13:11:49;7.97;;;5.80;;
20637;SDS011;10478;49.004;8.470;2022-08-19T13:14:14;6.88;;;5.20;;
20637;SDS011;10478;49.004;8.470;2022-08-19T13:16:39;10.15;;;5.32;;
20637;SDS011;10478;49.004;8.470;2022-08-19T13:19:06;9.40;;;4.70;;
20637;SDS011;10478;49.004;8.470;2022-08-19T13:21:32;8.57;;;7.28;;
20637;SDS011;10478;49.004;8.470;2022-08-19T13:23:57;6.45;;;5.22;;
20637;SDS011;10478;49.004;8.470;2022-08-19T13:26:23;8.20;;;5.47;;
20637;SDS011;10478;49.004;8.470;2022-08-19T13:28:49;7.43;;;5.75;;
20637;SDS011;10478;49.004;8.470;2022-08-19T13:31:33;8.30;;;4.90;;
20637;SDS011;10478;49.004;8.470;2022-08-19T13:34:19;5.95;;;5.32;;
20637;SDS011;10478;49.004;8.470;2022-08-19T13:36:52;5.80;;;4.80;;
20637;SDS011;10478;49.004;8.470;2022-08-19T13:39:18;7.20;;;4.68;;
20637;SDS011;10478;49.004;8.470;2022-08-19T13:41:44;6.32;;;4.72;;
20637;SDS011;10478;49.004;8.470;2022-08-19T13:44:12;40.97;;;26.95;;
20637;SDS011;10478;49.004;8.470;2022-08-19T13:46:38;5.47;;;4.72;;
20637;SDS011;10478;49.004;8.470;2022-08-19T13:49:04;4.82;;;4.25;;
20637;SDS011;10478;49.004;8.470;2022-08-19T13:51:29;11.63;;;4.90;;
20637;SDS011;10478;49.004;8.470;2022-08-19T13:53:54;5.22;;;3.85;;
20637;SDS011;10478;49.004;8.470;2022-08-19T13:56:20;4.30;;;3.22;;
20637;SDS011;10478;49.004;8.470;2022-08-19T13:58:45;5.55;;;3.85;;
20637;SDS011;10478;49.004;8.470;2022-08-19T14:01:11;8.27;;;4.25;;
20637;SDS011;10478;49.004;8.470;2022-08-19T14:03:37;6.78;;;4.38;;
20637;SDS011;10478;49.004;8.470;2022-08-19T14:06:02;5.65;;;4.30;;
20637;SDS011;10478;49.004;8.470;2022-08-19T14:08:28;7.32;;;4.38;;
20637;SDS011;10478;49.004;8.470;2022-08-19T14:10:54;5.53;;;4.22;;
20637;SDS011;10478;49.004;8.470;2022-08-19T14:13:20;5.80;;;3.70;;
20637;SDS011;10478;49.004;8.470;2022-08-19T14:15:47;7.57;;;4.43;;
20637;SDS011;10478;49.004;8.470;2022-08-19T14:18:13;4.57;;;4.03;;
20637;SDS011;10478;49.004;8.470;2022-08-19T14:20:39;4.20;;;3.78;;
20637;SDS011;10478;49.004;8.470;2022-08-19T14:23:04;6.15;;;3.47;;
20637;SDS011;10478;49.004;8.470;2022-08-19T14:25:32;6.93;;;4.82;;
20637;SDS011;10478;49.004;8.470;2022-08-19T14:27:59;7.40;;;4.90;;
20637;SDS011;10478;49.004;8.470;2022-08-19T14:30:25;5.05;;;4.25;;
20637;SDS011;10478;49.004;8.470;2022-08-19T14:32:53;6.03;;;4.32;;
20637;SDS011;10478;49.004;8.470;2022-08-19T14:35:19;5.07;;;3.55;;
20637;SDS011;10478;49.004;8.470;2022-08-19T14:37:46;4.70;;;3.83;;